createdAt,value
2022-10-04T00:01:05.576Z,101645.15
2022-10-04T00:03:41.651Z,101644.61
2022-10-04T00:06:15.143Z,101643.66
2022-10-04T00:08:44.626Z,101638.65
2022-10-04T00:11:25.595Z,101632.83
2022-10-04T00:14:01.335Z,101641.73
2022-10-04T00:16:32.724Z,101639.30
2022-10-04T00:19:17.214Z,101629.60
2022-10-04T00:21:56.221Z,101620.36
2022-10-04T00:24:24.371Z,101619.02
2022-10-04T00:26:50.971Z,101618.79
2022-10-04T00:29:43.614Z,101620.40
2022-10-04T00:32:24.320Z,101618.67
2022-10-04T00:34:52.255Z,101615.08
2022-10-04T00:37:20.685Z,101610.48
2022-10-04T00:39:58.011Z,101609.95
2022-10-04T00:42:55.871Z,101608.66
2022-10-04T00:45:28.225Z,101614.55
2022-10-04T00:48:09.105Z,101612.00
2022-10-04T00:50:44.002Z,101605.20
2022-10-04T00:53:38.957Z,101601.35
2022-10-04T00:56:13.829Z,101596.34
2022-10-04T00:59:02.770Z,101590.63
2022-10-04T01:01:31.709Z,101594.23
2022-10-04T01:04:02.373Z,101589.64
2022-10-04T01:06:30.698Z,101589.80
2022-10-04T01:09:04.008Z,101590.92
2022-10-04T01:11:35.378Z,101591.58
2022-10-04T01:14:09.336Z,101588.70
2022-10-04T01:16:37.738Z,101584.17
2022-10-04T01:19:30.356Z,101579.83
2022-10-04T01:22:08.600Z,101572.70
2022-10-04T01:24:37.613Z,101562.53
2022-10-04T01:27:24.496Z,101561.33
2022-10-04T01:29:51.894Z,101565.21
2022-10-04T01:32:18.669Z,101570.71
2022-10-04T01:34:45.724Z,101561.13
2022-10-04T01:37:14.559Z,101557.45
2022-10-04T01:39:41.673Z,101560.44
2022-10-04T01:42:11.245Z,101555.14
2022-10-04T01:44:45.527Z,101545.05
2022-10-04T01:47:18.132Z,101549.50
2022-10-04T01:49:46.772Z,101561.13
2022-10-04T01:52:23.805Z,101573.61
2022-10-04T01:55:05.473Z,101571.10
2022-10-04T01:57:55.107Z,101564.08
2022-10-04T02:00:23.249Z,101555.80
2022-10-04T02:03:04.272Z,101551.24
2022-10-04T02:05:38.500Z,101554.48
2022-10-04T02:08:09.303Z,101563.14
2022-10-04T02:10:43.495Z,101557.51
2022-10-04T02:13:15.142Z,101544.85
2022-10-04T02:15:42.328Z,101543.50
2022-10-04T02:18:18.451Z,101541.89
2022-10-04T02:20:47.148Z,101530.33
2022-10-04T02:23:16.590Z,101528.89
2022-10-04T02:25:43.452Z,101525.56
2022-10-04T02:28:11.760Z,101525.79
2022-10-04T02:30:40.242Z,101523.59
2022-10-04T02:33:07.121Z,101527.52
2022-10-04T02:35:37.352Z,101529.51
2022-10-04T02:38:09.812Z,101533.55
2022-10-04T02:40:55.098Z,101526.91
2022-10-04T02:43:38.561Z,101525.41
2022-10-04T02:46:15.076Z,101521.89
2022-10-04T02:48:53.368Z,101514.98
2022-10-04T02:51:39.051Z,101511.96
2022-10-04T02:54:33.663Z,101509.39
2022-10-04T02:57:01.238Z,101505.93
2022-10-04T02:59:33.520Z,101506.77
2022-10-04T03:02:02.213Z,101506.35
2022-10-04T03:04:32.928Z,101512.45
2022-10-04T03:07:07.784Z,101513.14
2022-10-04T03:09:36.603Z,101508.73
2022-10-04T03:12:04.718Z,101505.45
2022-10-04T03:14:32.262Z,101505.20
2022-10-04T03:17:03.853Z,101498.95
2022-10-04T03:19:32.308Z,101496.45
2022-10-04T03:22:03.492Z,101493.80
2022-10-04T03:24:37.717Z,101496.24
2022-10-04T03:27:08.509Z,101495.09
2022-10-04T03:29:39.581Z,101494.63
2022-10-04T03:32:06.487Z,101492.80
2022-10-04T03:34:41.598Z,101491.10
2022-10-04T03:37:13.276Z,101488.52
2022-10-04T03:39:55.185Z,101489.52
2022-10-04T03:42:36.207Z,101488.66
2022-10-04T03:45:07.717Z,101482.41
2022-10-04T03:47:40.416Z,101483.20
2022-10-04T03:50:21.408Z,101479.45
2022-10-04T03:52:53.908Z,101477.77
2022-10-04T03:55:22.192Z,101478.32
2022-10-04T03:57:49.323Z,101475.00
2022-10-04T04:00:18.290Z,101477.85
2022-10-04T04:02:52.298Z,101476.38
2022-10-04T04:05:29.343Z,101478.39
2022-10-04T04:08:14.300Z,101475.64
2022-10-04T04:10:49.770Z,101470.53
2022-10-04T04:13:51.867Z,101465.38
2022-10-04T04:16:22.054Z,101471.02
2022-10-04T04:18:49.981Z,101473.05
2022-10-04T04:21:19.907Z,101472.48
2022-10-04T04:23:51.404Z,101471.97
2022-10-04T04:26:34.963Z,101469.40
2022-10-04T04:29:32.023Z,101472.30
2022-10-04T04:32:05.251Z,101478.13
2022-10-04T04:34:34.985Z,101479.56
2022-10-04T04:37:05.346Z,101473.77
2022-10-04T04:39:42.568Z,101468.34
2022-10-04T04:42:19.234Z,101464.25
2022-10-04T04:45:00.180Z,101459.98
2022-10-04T04:47:43.621Z,101461.39
2022-10-04T04:50:15.485Z,101459.40
2022-10-04T04:52:48.629Z,101454.05
2022-10-04T04:55:27.789Z,101457.34
2022-10-04T04:57:58.102Z,101453.03
2022-10-04T05:00:30.990Z,101459.17
2022-10-04T05:03:01.004Z,101459.03
2022-10-04T05:05:28.828Z,101462.42
2022-10-04T05:08:10.816Z,101468.99
2022-10-04T05:10:47.172Z,101470.86
2022-10-04T05:13:16.427Z,101472.58
2022-10-04T05:15:44.007Z,101478.07
2022-10-04T05:18:28.284Z,101478.42
2022-10-04T05:21:00.765Z,101479.48
2022-10-04T05:23:27.901Z,101479.13
2022-10-04T05:25:54.844Z,101480.07
2022-10-04T05:28:22.104Z,101480.15
2022-10-04T05:31:00.749Z,101483.20
2022-10-04T05:33:54.574Z,101483.36
2022-10-04T05:36:56.088Z,101480.41
2022-10-04T05:39:38.617Z,101481.03
2022-10-04T05:42:13.903Z,101473.02
2022-10-04T05:44:51.841Z,101473.40
2022-10-04T05:47:24.054Z,101475.26
2022-10-04T05:49:54.043Z,101478.08
2022-10-04T05:52:39.871Z,101473.34
2022-10-04T05:55:16.144Z,101473.08
2022-10-04T05:57:48.825Z,101468.28
2022-10-04T06:00:21.147Z,101467.81
2022-10-04T06:03:00.046Z,101463.80
2022-10-04T06:05:33.096Z,101466.02
2022-10-04T06:08:16.952Z,101464.15
2022-10-04T06:10:57.503Z,101465.53
2022-10-04T06:13:52.613Z,101465.05
2022-10-04T06:17:02.275Z,101473.01
2022-10-04T06:19:56.824Z,101475.41
2022-10-04T06:22:26.829Z,101481.39
2022-10-04T06:25:04.781Z,101481.36
2022-10-04T06:27:35.966Z,101481.54
2022-10-04T06:30:12.345Z,101486.89
2022-10-04T06:33:13.989Z,101490.23
2022-10-04T06:35:59.192Z,101488.99
2022-10-04T06:39:04.088Z,101487.02
2022-10-04T06:42:00.985Z,101493.60
2022-10-04T06:44:36.205Z,101492.33
2022-10-04T06:47:20.512Z,101494.27
2022-10-04T06:50:25.166Z,101494.19
2022-10-04T06:53:26.135Z,101499.09
2022-10-04T06:56:10.718Z,101499.44
2022-10-04T06:58:43.578Z,101497.60
2022-10-04T07:01:34.219Z,101495.21
2022-10-04T07:04:41.180Z,101500.09
2022-10-04T07:07:35.514Z,101498.86
2022-10-04T07:10:05.302Z,101500.54
2022-10-04T07:12:35.320Z,101498.51
2022-10-04T07:15:05.050Z,101495.13
2022-10-04T07:17:40.335Z,101491.69
2022-10-04T07:20:17.042Z,101485.32
2022-10-04T07:23:01.780Z,101485.48
2022-10-04T07:25:33.915Z,101484.73
2022-10-04T07:28:32.024Z,101486.55
2022-10-04T07:31:06.484Z,101475.91
2022-10-04T07:33:44.621Z,101481.00
2022-10-04T07:36:18.642Z,101483.76
2022-10-04T07:38:53.570Z,101482.90
2022-10-04T07:41:28.995Z,101487.80
2022-10-04T07:44:01.571Z,101486.58
2022-10-04T07:46:45.955Z,101488.64
2022-10-04T07:49:17.872Z,101487.85
2022-10-04T07:51:57.139Z,101490.45
2022-10-04T07:54:48.478Z,101491.80
2022-10-04T07:57:27.593Z,101496.63
2022-10-04T08:00:13.848Z,101495.42
2022-10-04T08:03:08.386Z,101497.57
2022-10-04T08:05:46.495Z,101498.41
2022-10-04T08:08:36.536Z,101496.01
2022-10-04T08:11:15.361Z,101498.20
2022-10-04T08:14:01.956Z,101496.61
2022-10-04T08:16:53.169Z,101492.34
2022-10-04T08:19:41.455Z,101495.58
2022-10-04T08:22:33.263Z,101499.32
2022-10-04T08:25:22.469Z,101494.24
2022-10-04T08:28:57.533Z,101491.24
2022-10-04T08:32:00.837Z,101489.93
2022-10-04T08:34:42.173Z,101488.16
2022-10-04T08:38:01.255Z,101483.46
2022-10-04T08:40:46.244Z,101482.91
2022-10-04T08:43:30.774Z,101479.36
2022-10-04T08:46:07.524Z,101482.56
2022-10-04T08:49:18.189Z,101480.53
2022-10-04T08:52:22.055Z,101479.23
2022-10-04T08:55:00.837Z,101479.95
2022-10-04T08:57:48.989Z,101482.44
2022-10-04T09:00:55.224Z,101489.11
2022-10-04T09:03:36.928Z,101488.92
2022-10-04T09:06:27.458Z,101491.40
2022-10-04T09:09:30.159Z,101492.34
2022-10-04T09:12:20.809Z,101485.77
2022-10-04T09:15:02.711Z,101483.80
2022-10-04T09:18:01.472Z,101482.33
2022-10-04T09:20:46.060Z,101476.41
2022-10-04T09:23:45.240Z,101479.39
2022-10-04T09:26:33.158Z,101478.02
2022-10-04T09:29:39.267Z,101480.74
2022-10-04T09:32:30.423Z,101482.29
2022-10-04T09:35:15.613Z,101482.86
2022-10-04T09:37:47.703Z,101481.11
2022-10-04T09:40:29.576Z,101479.59
2022-10-04T09:43:33.419Z,101469.52
2022-10-04T09:46:23.190Z,101471.04
2022-10-04T09:48:56.745Z,101476.66
2022-10-04T09:51:49.052Z,101469.37
2022-10-04T09:54:40.050Z,101462.52
2022-10-04T09:57:30.189Z,101463.33
2022-10-04T10:00:18.502Z,101462.67
2022-10-04T10:03:05.663Z,101465.45
2022-10-04T10:06:00.994Z,101466.11
2022-10-04T10:09:05.845Z,101462.20
2022-10-04T10:11:53.727Z,101452.69
2022-10-04T10:14:32.874Z,101453.23
2022-10-04T10:17:15.226Z,101448.13
2022-10-04T10:20:23.325Z,101449.88
2022-10-04T10:23:17.907Z,101443.18
2022-10-04T10:26:02.613Z,101443.33
2022-10-04T10:28:57.903Z,101437.58
2022-10-04T10:31:56.799Z,101442.13
2022-10-04T10:34:46.663Z,101452.08
2022-10-04T10:37:53.051Z,101455.80
2022-10-04T10:41:00.324Z,101451.75
2022-10-04T10:43:29.743Z,101448.18
2022-10-04T10:46:20.135Z,101444.98
2022-10-04T10:49:05.455Z,101445.64
2022-10-04T10:51:55.902Z,101448.61
2022-10-04T10:54:43.210Z,101442.34
2022-10-04T10:57:28.298Z,101428.43
2022-10-04T10:59:59.569Z,101425.96
2022-10-04T11:02:49.273Z,101422.60
2022-10-04T11:05:48.088Z,101422.66
2022-10-04T11:08:52.049Z,101422.48
2022-10-04T11:11:27.590Z,101413.64
2022-10-04T11:14:28.259Z,101412.36
2022-10-04T11:17:03.997Z,101401.64
2022-10-04T11:19:46.602Z,101402.27
2022-10-04T11:22:21.985Z,101399.33
2022-10-04T11:25:07.213Z,101404.79
2022-10-04T11:27:58.222Z,101403.27
2022-10-04T11:30:27.137Z,101406.04
2022-10-04T11:33:39.023Z,101400.31
2022-10-04T11:36:39.106Z,101392.17
2022-10-04T11:39:23.232Z,101387.98
2022-10-04T11:42:26.506Z,101388.14
2022-10-04T11:45:02.363Z,101382.73
2022-10-04T11:48:01.364Z,101385.83
2022-10-04T11:50:52.678Z,101386.30
2022-10-04T11:53:37.169Z,101381.71
2022-10-04T11:56:45.688Z,101373.59
2022-10-04T11:59:27.305Z,101367.18
2022-10-04T12:02:16.980Z,101375.92
2022-10-04T12:04:55.665Z,101367.57
2022-10-04T12:07:26.511Z,101360.16
2022-10-04T12:10:01.149Z,101364.64
2022-10-04T12:13:06.337Z,101362.06
2022-10-04T12:16:00.067Z,101362.24
2022-10-04T12:18:51.521Z,101350.81
2022-10-04T12:21:40.936Z,101338.75
2022-10-04T12:24:27.160Z,101336.75
2022-10-04T12:27:03.118Z,101333.74
2022-10-04T12:30:03.829Z,101330.40
2022-10-04T12:33:03.321Z,101326.20
2022-10-04T12:35:47.832Z,101325.22
2022-10-04T12:38:46.556Z,101319.30
2022-10-04T12:41:31.613Z,101313.18
2022-10-04T12:44:01.066Z,101309.14
2022-10-04T12:46:49.604Z,101305.30
2022-10-04T12:49:41.812Z,101296.08
2022-10-04T12:52:18.563Z,101297.33
2022-10-04T12:54:50.715Z,101293.13
2022-10-04T12:57:35.018Z,101286.96
2022-10-04T13:00:14.446Z,101286.34
2022-10-04T13:02:47.745Z,101287.13
2022-10-04T13:05:32.835Z,101286.33
2022-10-04T13:08:05.676Z,101288.14
2022-10-04T13:10:47.780Z,101283.34
2022-10-04T13:13:41.023Z,101280.73
2022-10-04T13:19:31.234Z,101273.27
2022-10-04T13:22:37.883Z,101273.86
2022-10-04T13:25:26.153Z,101271.45
2022-10-04T13:28:02.365Z,101269.40
2022-10-04T13:30:57.068Z,101261.42
2022-10-04T13:33:47.394Z,101259.63
2022-10-04T13:36:32.427Z,101263.59
2022-10-04T13:39:10.373Z,101261.08
2022-10-04T13:42:03.329Z,101255.27
2022-10-04T13:44:37.583Z,101259.55
2022-10-04T13:47:42.448Z,101254.95
2022-10-04T13:50:14.532Z,101255.09
2022-10-04T13:53:14.766Z,101253.38
2022-10-04T13:56:33.396Z,101251.73
2022-10-04T13:59:21.299Z,101249.53
2022-10-04T14:02:13.713Z,101244.38
2022-10-04T14:05:10.269Z,101244.24
2022-10-04T14:07:37.188Z,101245.35
2022-10-04T14:10:31.307Z,101239.48
2022-10-04T14:13:28.764Z,101243.63
2022-10-04T14:16:20.359Z,101235.98
2022-10-04T14:19:28.307Z,101233.59
2022-10-04T14:22:08.632Z,101230.70
2022-10-04T14:25:07.456Z,101225.02
2022-10-04T14:28:01.057Z,101225.83
2022-10-04T14:30:52.348Z,101225.50
2022-10-04T14:33:18.727Z,101216.95
2022-10-04T14:35:53.250Z,101207.01
2022-10-04T14:38:54.997Z,101199.77
2022-10-04T14:42:15.504Z,101195.30
2022-10-04T14:45:12.994Z,101191.83
2022-10-04T14:48:18.935Z,101198.73
2022-10-04T14:51:13.858Z,101206.24
2022-10-04T14:54:05.551Z,101201.84
2022-10-04T14:56:57.875Z,101193.34
2022-10-04T14:59:49.142Z,101182.48
2022-10-04T15:02:31.642Z,101184.44
2022-10-04T15:05:28.652Z,101189.88
2022-10-04T15:08:15.631Z,101194.66
2022-10-04T15:10:56.001Z,101200.06
2022-10-04T15:13:30.760Z,101203.13
2022-10-04T15:16:36.737Z,101201.92
2022-10-04T15:19:22.672Z,101206.80
2022-10-04T15:21:54.666Z,101199.34
2022-10-04T15:24:24.010Z,101203.81
2022-10-04T15:27:28.089Z,101204.40
2022-10-04T15:30:31.352Z,101198.35
2022-10-04T15:33:25.318Z,101194.29
2022-10-04T15:35:57.683Z,101194.33
2022-10-04T15:38:39.854Z,101193.24
2022-10-04T15:41:45.852Z,101192.95
2022-10-04T15:44:33.404Z,101190.25
2022-10-04T15:47:21.445Z,101181.23
2022-10-04T15:49:58.997Z,101174.27
2022-10-04T15:52:51.818Z,101163.17
2022-10-04T15:55:21.266Z,101154.27
2022-10-04T15:57:47.619Z,101150.17
2022-10-04T16:00:21.107Z,101149.91
2022-10-04T16:02:48.554Z,101158.28
2022-10-04T16:05:56.687Z,101163.16
2022-10-04T16:08:48.695Z,101169.13
2022-10-04T16:11:38.495Z,101175.06
2022-10-04T16:14:20.157Z,101179.61
2022-10-04T16:17:13.871Z,101185.14
2022-10-04T16:19:59.940Z,101192.00
2022-10-04T16:22:29.946Z,101190.41
2022-10-04T16:25:25.359Z,101187.77
2022-10-04T16:27:54.799Z,101186.08
2022-10-04T16:30:33.966Z,101184.34
2022-10-04T16:33:23.123Z,101183.74
2022-10-04T16:36:20.477Z,101181.65
2022-10-04T16:39:10.698Z,101173.58
2022-10-04T16:41:46.438Z,101170.99
2022-10-04T16:44:39.894Z,101169.35
2022-10-04T16:47:38.328Z,101169.84
2022-10-04T16:50:10.512Z,101180.84
2022-10-04T16:53:05.376Z,101175.36
2022-10-04T16:55:35.353Z,101174.19
2022-10-04T16:58:26.831Z,101172.35
2022-10-04T17:01:32.313Z,101175.07
2022-10-04T17:04:04.624Z,101179.47
2022-10-04T17:06:44.038Z,101180.63
2022-10-04T17:09:25.654Z,101176.09
2022-10-04T17:12:16.849Z,101172.69
2022-10-04T17:15:05.004Z,101174.23
2022-10-04T17:18:06.327Z,101174.72
2022-10-04T17:20:41.468Z,101170.31
2022-10-04T17:23:16.988Z,101168.86
2022-10-04T17:26:01.553Z,101172.80
2022-10-04T17:28:34.080Z,101173.08
2022-10-04T17:31:15.714Z,101176.96
2022-10-04T17:33:59.425Z,101181.31
2022-10-04T17:37:21.503Z,101182.25
2022-10-04T17:40:09.013Z,101177.02
2022-10-04T17:43:07.005Z,101180.03
2022-10-04T17:45:52.704Z,101179.51
2022-10-04T17:48:51.102Z,101181.08
2022-10-04T17:51:38.893Z,101179.86
2022-10-04T17:54:42.755Z,101177.69
2022-10-04T17:57:35.849Z,101174.23
2022-10-04T18:00:11.553Z,101177.70
2022-10-04T18:02:38.111Z,101175.77
2022-10-04T18:05:18.782Z,101175.30
2022-10-04T18:07:55.196Z,101175.48
2022-10-04T18:10:33.781Z,101171.91
2022-10-04T18:13:35.691Z,101169.36
2022-10-04T18:16:15.561Z,101172.08
2022-10-04T18:18:44.173Z,101165.19
2022-10-04T18:21:29.137Z,101165.70
2022-10-04T18:24:13.248Z,101163.33
2022-10-04T18:26:56.719Z,101160.34
2022-10-04T18:29:40.545Z,101162.36
2022-10-04T18:32:30.252Z,101162.54
2022-10-04T18:34:59.739Z,101160.67
2022-10-04T18:37:37.477Z,101166.98
2022-10-04T18:40:19.525Z,101164.77
2022-10-04T18:42:57.556Z,101161.48
2022-10-04T18:45:34.578Z,101161.45
2022-10-04T18:48:13.369Z,101165.12
2022-10-04T18:50:47.168Z,101163.89
2022-10-04T18:53:42.024Z,101170.36
2022-10-04T18:56:10.595Z,101176.43
2022-10-04T18:59:03.914Z,101178.23
2022-10-04T19:02:00.810Z,101177.59
2022-10-04T19:04:49.762Z,101178.39
2022-10-04T19:07:21.529Z,101176.45
2022-10-04T19:10:30.039Z,101175.96
2022-10-04T19:13:18.226Z,101173.60
2022-10-04T19:16:13.229Z,101174.08
2022-10-04T19:18:56.846Z,101173.74
2022-10-04T19:22:00.840Z,101172.75
2022-10-04T19:24:49.459Z,101178.45
2022-10-04T19:27:40.167Z,101169.46
2022-10-04T19:30:12.656Z,101161.61
2022-10-04T19:33:05.220Z,101164.04
2022-10-04T19:36:16.133Z,101163.07
2022-10-04T19:39:00.039Z,101163.09
2022-10-04T19:41:26.432Z,101162.33
2022-10-04T19:44:12.067Z,101168.20
2022-10-04T19:46:41.873Z,101171.22
2022-10-04T19:49:33.248Z,101177.02
2022-10-04T19:52:18.085Z,101187.15
2022-10-04T19:54:45.004Z,101192.27
2022-10-04T19:57:14.847Z,101197.65
2022-10-04T19:59:45.926Z,101205.85
2022-10-04T20:02:13.666Z,101201.10
2022-10-04T20:04:43.212Z,101202.98
2022-10-04T20:07:23.622Z,101199.52
2022-10-04T20:10:19.091Z,101195.48
2022-10-04T20:13:07.850Z,101183.16
2022-10-04T20:15:37.724Z,101179.81
2022-10-04T20:18:31.993Z,101175.80
2022-10-04T20:21:01.495Z,101174.90
2022-10-04T20:23:40.293Z,101177.70
2022-10-04T20:26:11.741Z,101165.27
2022-10-04T20:28:42.478Z,101163.07
2022-10-04T20:31:25.089Z,101165.39
2022-10-04T20:33:51.750Z,101163.32
2022-10-04T20:36:21.363Z,101157.04
2022-10-04T20:38:50.649Z,101161.86
2022-10-04T20:41:29.331Z,101170.21
2022-10-04T20:44:01.435Z,101167.38
2022-10-04T20:46:34.820Z,101162.85
2022-10-04T20:49:02.719Z,101159.35
2022-10-04T20:51:32.897Z,101157.35
2022-10-04T20:54:00.356Z,101150.41
2022-10-04T20:56:35.957Z,101146.44
2022-10-04T20:59:04.574Z,101148.09
2022-10-04T21:01:36.037Z,101143.52
2022-10-04T21:04:42.367Z,101148.11
2022-10-04T21:07:26.094Z,101156.24
2022-10-04T21:09:54.585Z,101166.86
2022-10-04T21:12:38.355Z,101172.05
2022-10-04T21:15:17.296Z,101174.42
2022-10-04T21:18:04.960Z,101176.30
2022-10-04T21:21:00.877Z,101173.60
2022-10-04T21:23:33.871Z,101178.73
2022-10-04T21:26:23.033Z,101175.52
2022-10-04T21:28:59.915Z,101171.44
2022-10-04T21:31:26.746Z,101167.56
2022-10-04T21:33:58.527Z,101162.85
2022-10-04T21:36:25.466Z,101154.86
2022-10-04T21:38:54.404Z,101149.38
2022-10-04T21:41:21.235Z,101138.80
2022-10-04T21:43:47.941Z,101127.77
2022-10-04T21:46:19.340Z,101118.59
2022-10-04T21:48:47.149Z,101121.27
2022-10-04T21:51:13.886Z,101122.19
2022-10-04T21:53:40.706Z,101127.35
2022-10-04T21:56:07.703Z,101125.49
2022-10-04T21:58:34.539Z,101130.42
2022-10-04T22:01:01.154Z,101123.75
2022-10-04T22:03:45.112Z,101120.70
2022-10-04T22:06:11.577Z,101116.88
2022-10-04T22:08:38.292Z,101118.22
2022-10-04T22:11:07.752Z,101116.20
2022-10-04T22:13:34.703Z,101121.39
2022-10-04T22:16:02.607Z,101120.77
2022-10-04T22:18:29.954Z,101122.86
2022-10-04T22:20:56.592Z,101125.32
2022-10-04T22:23:25.625Z,101126.30
2022-10-04T22:25:53.465Z,101122.62
2022-10-04T22:28:29.168Z,101125.80
2022-10-04T22:30:56.601Z,101131.34
2022-10-04T22:33:34.749Z,101141.14
2022-10-04T22:36:19.141Z,101148.80
2022-10-04T22:38:51.667Z,101151.38
2022-10-04T22:41:19.588Z,101144.89
2022-10-04T22:43:47.261Z,101139.33
2022-10-04T22:46:19.579Z,101142.63
2022-10-04T22:48:48.426Z,101143.88
2022-10-04T22:51:15.309Z,101141.50
2022-10-04T22:53:47.586Z,101139.55
2022-10-04T22:56:15.260Z,101137.60
2022-10-04T22:58:42.683Z,101143.17
2022-10-04T23:01:18.072Z,101136.34
2022-10-04T23:03:46.488Z,101140.95
2022-10-04T23:06:15.881Z,101145.41
2022-10-04T23:08:43.104Z,101156.95
2022-10-04T23:11:12.116Z,101153.98
2022-10-04T23:13:38.998Z,101153.27
2022-10-04T23:16:20.461Z,101154.14
2022-10-04T23:18:47.463Z,101150.70
2022-10-04T23:21:25.971Z,101147.93
2022-10-04T23:23:53.381Z,101142.58
2022-10-04T23:26:31.587Z,101135.13
2022-10-04T23:28:58.669Z,101131.11
2022-10-04T23:31:26.983Z,101123.36
2022-10-04T23:33:56.743Z,101117.34
2022-10-04T23:36:23.948Z,101124.10
2022-10-04T23:38:56.494Z,101121.96
2022-10-04T23:41:23.490Z,101123.86
2022-10-04T23:43:50.761Z,101122.39
2022-10-04T23:46:21.044Z,101123.66
2022-10-04T23:48:48.304Z,101113.40
2022-10-04T23:51:18.350Z,101109.59
2022-10-04T23:53:49.103Z,101110.43
2022-10-04T23:56:22.488Z,101109.70
2022-10-04T23:58:50.299Z,101118.89
